createdAt,value
2022-09-12T00:05:29.513Z,30.8
2022-09-12T00:11:10.373Z,30.8
2022-09-12T00:16:48.864Z,30.8
2022-09-12T00:22:27.290Z,30.7
2022-09-12T00:28:04.063Z,30.7
2022-09-12T00:33:25.696Z,30.7
2022-09-12T00:39:03.964Z,30.6
2022-09-12T00:44:41.186Z,30.7
2022-09-12T00:50:17.879Z,30.7
2022-09-12T00:55:55.951Z,30.6
2022-09-12T01:01:17.318Z,30.6
2022-09-12T01:06:54.753Z,30.6
2022-09-12T01:12:32.549Z,30.6
2022-09-12T01:18:09.623Z,30.6
2022-09-12T01:23:47.509Z,30.6
2022-09-12T01:29:25.352Z,30.6
2022-09-12T01:35:02.398Z,30.6
2022-09-12T01:40:38.970Z,30.5
2022-09-12T01:46:16.628Z,30.5
2022-09-12T01:51:54.096Z,30.4
2022-09-12T01:57:20.632Z,30.4
2022-09-12T02:02:58.918Z,30.4
2022-09-12T02:08:35.680Z,30.4
2022-09-12T02:14:13.029Z,30.4
2022-09-12T02:19:51.127Z,30.4
2022-09-12T02:25:49.662Z,30.4
2022-09-12T02:31:26.494Z,30.4
2022-09-12T02:37:04.261Z,30.3
2022-09-12T02:42:42.214Z,30.3
2022-09-12T02:48:19.336Z,30.3
2022-09-12T02:53:41.405Z,30.3
2022-09-12T02:59:18.339Z,30.3
2022-09-12T03:04:55.856Z,30.3
2022-09-12T03:10:33.565Z,30.3
2022-09-12T03:16:10.942Z,30.2
2022-09-12T03:21:32.125Z,30.2
2022-09-12T03:27:09.073Z,30.2
2022-09-12T03:32:46.399Z,30.1
2022-09-12T03:38:27.422Z,30.1
2022-09-12T03:44:04.814Z,30.1
2022-09-12T03:49:42.039Z,30.1
2022-09-12T03:55:18.494Z,30.1
2022-09-12T04:00:56.844Z,30.2
2022-09-12T04:06:35.044Z,30.1
2022-09-12T04:11:41.322Z,30.1
2022-09-12T04:17:19.923Z,30.1
2022-09-12T04:22:57.537Z,30.1
2022-09-12T04:28:35.298Z,30.2
2022-09-12T04:33:57.622Z,30.3
2022-09-12T04:39:34.805Z,30.3
2022-09-12T04:45:11.355Z,30.2
2022-09-12T04:50:52.591Z,30.2
2022-09-12T04:56:29.892Z,30.1
2022-09-12T05:02:06.667Z,30.1
2022-09-12T05:07:47.220Z,30.1
2022-09-12T05:13:54.901Z,29.9
2022-09-12T05:19:19.746Z,30
2022-09-12T05:24:58.083Z,29.9
2022-09-12T05:30:36.144Z,29.9
2022-09-12T05:36:12.597Z,29.9
2022-09-12T05:41:54.878Z,29.8
2022-09-12T05:47:33.223Z,29.8
2022-09-12T05:53:10.198Z,29.8
2022-09-12T05:58:47.722Z,29.8
2022-09-12T06:04:30.669Z,29.7
2022-09-12T06:10:08.413Z,29.7
2022-09-12T06:15:49.968Z,38.3
2022-09-12T06:21:32.103Z,39.8
2022-09-12T06:27:09.557Z,38.1
2022-09-12T06:32:51.447Z,36.7
2022-09-12T06:38:28.476Z,42.3
2022-09-12T06:44:10.743Z,40.6
2022-09-12T06:49:49.308Z,38.8
2022-09-12T06:55:27.905Z,37.1
2022-09-12T07:00:50.208Z,41.9
2022-09-12T07:06:28.243Z,43.6
2022-09-12T07:12:04.953Z,44.9
2022-09-12T07:17:43.036Z,44.8
2022-09-12T07:23:20.887Z,45
2022-09-12T07:29:13.059Z,45.1
2022-09-12T07:35:00.983Z,44.8
2022-09-12T07:40:23.225Z,44.7
2022-09-12T07:46:00.773Z,45.8
2022-09-12T07:51:38.190Z,46.3
2022-09-12T07:57:20.734Z,46.9
2022-09-12T08:03:22.952Z,47.6
2022-09-12T08:09:03.832Z,47.9
2022-09-12T08:14:45.351Z,48.8
2022-09-12T08:20:26.503Z,49.5
2022-09-12T08:25:50.397Z,50.3
2022-09-12T08:31:28.441Z,50.9
2022-09-12T08:37:06.352Z,51.4
2022-09-12T08:48:10.960Z,52.4
2022-09-12T08:53:48.931Z,52.8
2022-09-12T08:59:26.753Z,52.9
2022-09-12T09:05:05.439Z,52.9
2022-09-12T09:10:42.975Z,52.9
2022-09-12T09:16:20.578Z,53.8
2022-09-12T09:21:47.343Z,54.3
2022-09-12T09:27:46.717Z,54.6
2022-09-12T09:33:23.567Z,55.1
2022-09-12T09:39:04.626Z,55.5
2022-09-12T09:44:27.479Z,55.9
2022-09-12T09:49:51.252Z,56.3
2022-09-12T09:54:58.568Z,55.4
2022-09-12T10:00:05.805Z,56
2022-09-12T10:05:32.497Z,51
2022-09-12T10:10:55.025Z,43.9
2022-09-12T10:16:33.972Z,43.4
2022-09-12T10:22:16.835Z,44.1
2022-09-12T10:27:59.060Z,45.5
2022-09-12T10:33:37.427Z,47.2
2022-09-12T10:38:59.400Z,47.3
2022-09-12T10:44:37.756Z,49.1
2022-09-12T10:50:22.749Z,50.1
2022-09-12T10:56:04.205Z,50.9
2022-09-12T11:01:46.071Z,52
2022-09-12T11:07:08.337Z,52.8
2022-09-12T11:12:49.962Z,53.4
2022-09-12T11:18:28.179Z,54.2
2022-09-12T11:24:10.556Z,54.9
2022-09-12T11:29:20.345Z,55.4
2022-09-12T11:34:48.449Z,55.8
2022-09-12T11:40:29.419Z,56.2
2022-09-12T11:46:07.073Z,56.4
2022-09-12T11:51:47.715Z,56.8
2022-09-12T11:57:25.171Z,56.9
2022-09-12T12:03:07.366Z,57.1
2022-09-12T12:08:34.667Z,57.3
2022-09-12T12:14:17.714Z,57.4
2022-09-12T12:19:43.507Z,57.6
2022-09-12T12:25:29.804Z,56.8
2022-09-12T12:31:08.303Z,56.2
2022-09-12T12:36:46.212Z,56.8
2022-09-12T12:42:33.547Z,57.1
2022-09-12T12:48:11.521Z,57.1
2022-09-12T12:53:49.119Z,56.7
2022-09-12T12:59:31.345Z,54.6
2022-09-12T13:05:15.727Z,54.4
2022-09-12T13:10:37.675Z,54.6
2022-09-12T13:16:14.878Z,54.7
2022-09-12T13:22:21.430Z,54.2
2022-09-12T13:27:59.003Z,53.9
2022-09-12T13:33:40.600Z,53.6
2022-09-12T13:39:18.042Z,52.8
2022-09-12T13:44:55.775Z,49.8
2022-09-12T13:50:33.341Z,49.8
2022-09-12T13:56:11.078Z,47.1
2022-09-12T14:01:48.802Z,44.9
2022-09-12T14:07:27.049Z,49.7
2022-09-12T14:13:05.922Z,47.2
2022-09-12T14:18:45.715Z,44.3
2022-09-12T14:24:27.964Z,44.4
2022-09-12T14:30:05.882Z,46.8
2022-09-12T14:35:43.646Z,43.5
2022-09-12T14:41:21.653Z,41.3
2022-09-12T14:46:43.651Z,39.6
2022-09-12T14:52:24.557Z,38.1
2022-09-12T14:58:02.528Z,36.9
2022-09-12T15:03:40.336Z,35.9
2022-09-12T15:09:19.073Z,35.1
2022-09-12T15:14:56.807Z,34.3
2022-09-12T15:20:20.852Z,33.4
2022-09-12T15:25:59.364Z,32.7
2022-09-12T15:31:37.727Z,32.1
2022-09-12T15:37:15.899Z,31.6
2022-09-12T15:42:57.699Z,31.1
2022-09-12T15:48:39.773Z,30.8
2022-09-12T15:54:07.126Z,30.4
2022-09-12T16:00:03.258Z,30.2
2022-09-12T16:05:31.347Z,30
2022-09-12T16:11:12.454Z,29.8
2022-09-12T16:16:34.140Z,29.6
2022-09-12T16:22:14.296Z,29.4
2022-09-12T16:27:52.103Z,29.3
2022-09-12T16:33:30.401Z,29.2
2022-09-12T16:39:08.314Z,29.1
2022-09-12T16:44:47.036Z,29
2022-09-12T16:50:30.131Z,28.9
2022-09-12T16:56:08.762Z,28.9
2022-09-12T17:01:49.485Z,28.9
2022-09-12T17:07:31.290Z,28.9
2022-09-12T17:12:56.400Z,28.8
2022-09-12T17:18:47.272Z,28.8
2022-09-12T17:24:15.294Z,28.8
2022-09-12T17:29:38.255Z,28.7
2022-09-12T17:35:15.768Z,28.8
2022-09-12T17:40:59.332Z,28.8
2022-09-12T17:46:41.055Z,28.8
2022-09-12T17:52:27.087Z,28.7
2022-09-12T17:57:50.889Z,28.7
2022-09-12T18:03:30.021Z,28.7
2022-09-12T18:09:07.983Z,28.7
2022-09-12T18:14:47.462Z,28.7
2022-09-12T18:20:11.506Z,28.7
2022-09-12T18:25:49.027Z,28.6
2022-09-12T18:31:58.094Z,28.6
2022-09-12T18:37:21.412Z,28.6
2022-09-12T18:42:47.199Z,28.6
2022-09-12T18:48:25.384Z,28.6
2022-09-12T18:54:05.758Z,28.5
2022-09-12T18:59:43.711Z,28.5
2022-09-12T19:05:21.399Z,28.5
2022-09-12T19:11:03.800Z,28.4
2022-09-12T19:16:26.780Z,28.4
2022-09-12T19:21:54.177Z,28.4
2022-09-12T19:27:17.218Z,28.3
2022-09-12T19:32:41.711Z,28.2
2022-09-12T19:38:24.968Z,27.9
2022-09-12T19:44:03.652Z,27.8
2022-09-12T19:49:41.847Z,27.6
2022-09-12T19:55:24.580Z,27.4
2022-09-12T20:01:08.078Z,27.3
2022-09-12T20:06:48.913Z,27.3
2022-09-12T20:12:26.478Z,27.1
2022-09-12T20:18:04.939Z,27.1
2022-09-12T20:23:45.743Z,27.1
2022-09-12T20:29:23.220Z,27
2022-09-12T20:35:02.000Z,27
2022-09-12T20:40:24.553Z,27
2022-09-12T20:46:02.373Z,27
2022-09-12T20:51:43.678Z,27
2022-09-12T20:57:21.216Z,27
2022-09-12T21:02:58.970Z,26.9
2022-09-12T21:08:37.839Z,26.9
2022-09-12T21:14:15.501Z,26.9
2022-09-12T21:19:54.014Z,26.9
2022-09-12T21:25:33.549Z,26.9
2022-09-12T21:31:18.264Z,26.9
2022-09-12T21:36:44.938Z,26.9
2022-09-12T21:42:23.344Z,26.9
2022-09-12T21:48:01.632Z,26.9
2022-09-12T21:53:39.253Z,26.9
2022-09-12T21:59:02.145Z,26.9
2022-09-12T22:04:24.099Z,26.9
2022-09-12T22:10:02.892Z,26.9
2022-09-12T22:16:09.408Z,26.9
2022-09-12T22:21:47.444Z,26.9
2022-09-12T22:27:23.516Z,26.9
2022-09-12T22:33:02.044Z,26.9
2022-09-12T22:38:43.087Z,26.9
2022-09-12T22:44:20.199Z,26.9
2022-09-12T22:50:02.917Z,26.9
2022-09-12T22:55:40.767Z,26.9
2022-09-12T23:01:02.506Z,27
2022-09-12T23:06:25.202Z,26.9
2022-09-12T23:11:49.258Z,26.9
2022-09-12T23:17:09.916Z,27
2022-09-12T23:22:16.681Z,27
2022-09-12T23:27:38.230Z,26.9
2022-09-12T23:33:15.804Z,26.9
2022-09-12T23:38:38.964Z,26.9
2022-09-12T23:44:01.115Z,26.9
2022-09-12T23:49:37.841Z,27
2022-09-12T23:55:01.926Z,26.9
